Time;durP1;ratioP1;P1;durP2;ratioP2;P2;SDS_P1;SDS_P2;PMS_P1;PMS_P2;Temp;Humidity;BMP_temperature;BMP_pressure;BME280_temperature;BME280_humidity;BME280_pressure;Samples;Min_cycle;Max_cycle;Signal;HPM_P1;HPM_P2
2023/06/04 00:01:05;;;;;;;;;6.00;5.00;;;;;19.61;40.44;101209.44;4976691;28;45247;-80
2023/06/04 00:03:32;;;;;;;;;6.00;6.00;;;;;19.70;40.58;101224.50;4956286;28;45413;-81
2023/06/04 00:05:57;;;;;;;;;5.33;5.33;;;;;19.61;40.63;101212.16;4959828;28;48294;-80
2023/06/04 00:08:23;;;;;;;;;6.00;6.00;;;;;19.65;40.83;101216.16;4966116;28;45612;-80
2023/06/04 00:10:48;;;;;;;;;6.00;5.00;;;;;19.71;40.67;101231.56;4975561;28;45440;-80
2023/06/04 00:13:14;;;;;;;;;4.67;4.67;;;;;19.49;40.72;101188.56;4959506;28;45534;-80
2023/06/04 00:15:39;;;;;;;;;5.00;5.00;;;;;19.57;40.76;101218.94;4960144;28;45707;-81
2023/06/04 00:18:05;;;;;;;;;7.00;5.33;;;;;18.93;40.60;101119.09;4958786;28;45439;-81
2023/06/04 00:20:30;;;;;;;;;7.00;7.00;;;;;19.53;41.06;101219.50;4975604;28;45400;-79
2023/06/04 00:22:55;;;;;;;;;9.33;8.00;;;;;19.46;41.09;101227.53;4960706;28;45460;-81
2023/06/04 00:25:21;;;;;;;;;7.00;6.00;;;;;19.40;41.33;101209.41;4945533;28;47377;-79
2023/06/04 00:27:46;;;;;;;;;6.00;5.67;;;;;19.32;41.23;101212.22;4958674;28;46047;-81
2023/06/04 00:30:12;;;;;;;;;8.00;6.67;;;;;19.26;41.27;101199.50;4957454;28;45421;-80
2023/06/04 00:32:38;;;;;;;;;4.00;4.00;;;;;19.20;41.09;101200.25;4938923;28;45485;-80
2023/06/04 00:35:03;;;;;;;;;7.00;6.33;;;;;18.98;41.74;101151.69;4958426;28;46301;-80
2023/06/04 00:37:29;;;;;;;;;9.00;6.33;;;;;19.39;41.40;101229.28;4960677;28;45389;-77
2023/06/04 00:39:55;;;;;;;;;6.33;4.67;;;;;19.29;41.05;101204.50;4945063;28;45532;-77
2023/06/04 00:42:20;;;;;;;;;5.67;4.00;;;;;19.34;40.99;101208.31;4941824;28;45263;-78
2023/06/04 00:44:47;;;;;;;;;6.00;5.00;;;;;19.30;41.11;101211.56;4952482;28;46667;-78
2023/06/04 00:47:13;;;;;;;;;7.00;6.00;;;;;19.43;41.16;101236.84;4957656;28;45349;-79
2023/06/04 00:49:39;;;;;;;;;6.33;6.00;;;;;19.23;41.01;101205.28;4958594;28;45183;-78
2023/06/04 00:52:05;;;;;;;;;8.67;8.67;;;;;19.34;41.22;101224.47;4973766;28;45362;-79
2023/06/04 00:54:32;;;;;;;;;5.33;5.33;;;;;19.12;41.52;101210.13;4958899;28;46514;-78
2023/06/04 00:56:58;;;;;;;;;7.67;5.33;;;;;19.17;41.32;101214.94;4973748;28;45820;-78
2023/06/04 00:59:24;;;;;;;;;5.67;4.33;;;;;19.25;41.46;101224.78;4956880;28;45552;-79
2023/06/04 01:01:57;;;;;;;;;5.67;4.67;;;;;19.19;41.49;101236.31;4957136;28;45601;-78
2023/06/04 01:04:44;;;;;;;;;7.00;6.00;;;;;19.19;41.24;101222.84;4956028;28;48593;-79
2023/06/04 01:07:13;;;;;;;;;5.00;5.00;;;;;19.20;41.56;101232.59;4936324;28;46629;-79
2023/06/04 01:09:38;;;;;;;;;6.33;5.33;;;;;19.12;41.49;101237.06;4949554;28;45588;-78
2023/06/04 01:12:05;;;;;;;;;6.00;5.67;;;;;19.07;41.18;101219.81;4957158;28;45433;-78
2023/06/04 01:14:33;;;;;;;;;6.00;6.00;;;;;19.19;41.42;101241.69;4957732;28;46727;-78
2023/06/04 01:17:29;;;;;;;;;7.67;5.67;;;;;19.14;41.27;101218.00;4973184;28;45576;-79
2023/06/04 01:20:16;;;;;;;;;7.00;6.00;;;;;19.17;41.15;101233.81;4951782;28;45444;-78
2023/06/04 01:22:41;;;;;;;;;6.00;6.00;;;;;19.15;41.41;101233.16;4957497;28;45427;-78
2023/06/04 01:25:25;;;;;;;;;6.00;6.00;;;;;19.08;41.59;101225.00;4943873;28;47073;-78
2023/06/04 01:27:55;;;;;;;;;5.00;4.00;;;;;19.09;41.32;101223.97;4938053;28;45342;-80
2023/06/04 01:30:31;;;;;;;;;7.00;6.00;;;;;19.00;41.47;101219.69;4955158;28;45291;-79
2023/06/04 01:32:59;;;;;;;;;7.00;6.00;;;;;18.88;41.61;101190.75;4962872;28;45446;-78
2023/06/04 01:35:26;;;;;;;;;4.33;4.33;;;;;18.79;41.52;101190.81;4972553;28;47521;-79
2023/06/04 01:37:51;;;;;;;;;6.00;6.00;;;;;19.01;41.47;101226.75;4958058;28;45376;-78
2023/06/04 01:40:17;;;;;;;;;9.67;7.00;;;;;19.01;41.62;101226.75;4973350;28;45818;-77
2023/06/04 01:42:42;;;;;;;;;6.00;6.00;;;;;18.44;41.46;101146.63;4958484;28;45457;-79
2023/06/04 01:45:09;;;;;;;;;6.33;6.33;;;;;18.91;41.79;101237.00;4944463;28;47020;-80
2023/06/04 01:47:35;;;;;;;;;9.67;8.33;;;;;18.86;42.13;101233.19;4954080;28;45372;-79
2023/06/04 01:50:05;;;;;;;;;8.67;8.33;;;;;18.65;41.74;101202.47;4950011;28;45584;-80
2023/06/04 01:52:30;;;;;;;;;8.67;6.67;;;;;18.70;41.79;101221.56;4958124;28;45519;-79
2023/06/04 01:54:56;;;;;;;;;5.67;4.00;;;;;18.78;41.85;101234.94;4956806;28;48618;-78
2023/06/04 01:57:22;;;;;;;;;7.00;6.67;;;;;18.77;41.74;101240.53;4956697;28;45454;-78
2023/06/04 01:59:48;;;;;;;;;5.33;4.00;;;;;18.66;41.79;101222.97;4974259;28;45542;-78
2023/06/04 02:02:14;;;;;;;;;5.33;5.33;;;;;18.59;41.87;101215.78;4959397;28;45282;-78
2023/06/04 02:04:41;;;;;;;;;4.33;4.33;;;;;18.58;41.91;101219.47;4957909;28;45368;-79
2023/06/04 02:07:11;;;;;;;;;7.00;5.00;;;;;18.54;41.86;101214.47;4972948;28;45285;-79
2023/06/04 02:09:36;;;;;;;;;5.33;4.00;;;;;18.69;42.08;101241.47;4973017;28;45461;-78
2023/06/04 02:12:02;;;;;;;;;4.33;4.33;;;;;18.29;42.12;101204.16;4958813;28;45357;-78
2023/06/04 02:14:27;;;;;;;;;9.67;4.00;;;;;18.47;42.05;101245.03;4956652;28;47274;-78
2023/06/04 02:16:53;;;;;;;;;5.00;5.00;;;;;18.47;42.20;101248.56;4956877;28;46073;-78
2023/06/04 02:19:20;;;;;;;;;4.00;4.00;;;;;18.03;42.56;101172.28;4956627;28;45504;-78
2023/06/04 02:21:46;;;;;;;;;4.00;4.00;;;;;18.47;42.30;101242.34;4957052;28;45716;-79
2023/06/04 02:24:11;;;;;;;;;5.33;3.33;;;;;18.46;42.33;101246.88;4957629;28;46554;-80
2023/06/04 02:26:36;;;;;;;;;6.33;5.00;;;;;18.37;42.44;101228.28;4959002;28;45455;-79
2023/06/04 02:29:02;;;;;;;;;4.67;4.67;;;;;18.27;42.08;101215.09;4961399;28;45398;-80
2023/06/04 02:31:27;;;;;;;;;6.67;5.00;;;;;18.37;42.64;101237.19;4957809;28;45351;-79
2023/06/04 02:33:53;;;;;;;;;3.33;3.33;;;;;18.31;42.51;101231.72;4953118;28;46435;-80
2023/06/04 02:36:18;;;;;;;;;5.00;5.00;;;;;18.38;42.32;101246.94;4957820;28;45164;-78
2023/06/04 02:38:43;;;;;;;;;5.67;4.67;;;;;18.34;42.09;101236.72;4973361;28;45340;-78
2023/06/04 02:41:09;;;;;;;;;5.67;5.00;;;;;18.35;42.38;101244.63;4973039;28;45325;-78
2023/06/04 02:43:34;;;;;;;;;4.33;4.33;;;;;18.33;42.59;101246.66;4972423;28;48266;-78
2023/06/04 02:46:00;;;;;;;;;4.00;4.00;;;;;18.36;42.77;101246.28;4972510;28;45291;-78
2023/06/04 02:48:25;;;;;;;;;5.00;4.00;;;;;18.35;42.69;101250.00;4956076;28;45420;-78
2023/06/04 02:50:51;;;;;;;;;5.33;5.33;;;;;18.31;42.53;101254.09;4971214;28;45679;-79
2023/06/04 02:53:16;;;;;;;;;6.00;4.00;;;;;18.08;42.14;101216.44;4957286;28;46914;-79
2023/06/04 02:55:41;;;;;;;;;4.00;4.00;;;;;18.06;42.25;101218.47;4961753;28;45548;-78
2023/06/04 02:58:08;;;;;;;;;3.67;3.67;;;;;17.91;42.74;101198.75;4973100;28;45460;-78
2023/06/04 03:00:34;;;;;;;;;6.00;5.00;;;;;17.83;42.58;101186.22;4957510;28;45579;-78
2023/06/04 03:03:01;;;;;;;;;4.00;4.00;;;;;18.19;42.43;101250.13;4957487;28;45731;-82
2023/06/04 03:05:27;;;;;;;;;6.33;6.33;;;;;18.18;42.43;101259.22;4957194;28;45234;-79
2023/06/04 03:07:53;;;;;;;;;3.67;3.67;;;;;18.00;42.35;101229.94;4956439;28;45842;-78
2023/06/04 03:10:18;;;;;;;;;3.67;3.00;;;;;18.12;42.83;101243.81;4957886;28;45349;-78
2023/06/04 03:12:44;;;;;;;;;4.67;4.67;;;;;17.89;42.55;101220.47;4959193;28;46661;-77
2023/06/04 03:15:10;;;;;;;;;3.00;3.00;;;;;18.07;42.70;101248.91;4960269;28;45405;-78
2023/06/04 03:17:36;;;;;;;;;5.67;5.00;;;;;18.02;42.60;101251.28;4977421;28;45487;-77
2023/06/04 03:20:04;;;;;;;;;6.00;3.00;;;;;17.62;42.86;101189.56;4978874;28;45508;-76
2023/06/04 03:22:30;;;;;;;;;6.00;5.00;;;;;17.93;42.95;101245.16;4978602;28;45866;-77
2023/06/04 03:24:55;;;;;;;;;4.00;4.00;;;;;17.88;43.10;101245.69;4981896;28;45583;-78
2023/06/04 03:27:21;;;;;;;;;6.67;4.00;;;;;17.70;42.98;101220.94;4981955;28;45704;-77
2023/06/04 03:29:47;;;;;;;;;4.00;4.00;;;;;17.80;42.98;101239.53;4978793;28;45367;-77
2023/06/04 03:32:13;;;;;;;;;5.33;4.00;;;;;17.75;43.29;101239.22;4979360;28;46223;-78
2023/06/04 03:34:38;;;;;;;;;5.33;5.00;;;;;17.72;43.28;101240.41;4977389;28;45550;-78
2023/06/04 03:37:04;;;;;;;;;3.00;3.00;;;;;17.69;43.30;101232.72;4980286;28;45343;-78
2023/06/04 03:39:29;;;;;;;;;4.00;3.67;;;;;17.74;43.15;101242.94;4962463;28;45255;-79
2023/06/04 03:41:55;;;;;;;;;6.00;5.00;;;;;17.65;43.27;101226.00;4960659;28;47173;-77
2023/06/04 03:44:21;;;;;;;;;4.33;2.00;;;;;17.73;43.15;101244.78;4979947;28;45407;-76
2023/06/04 03:46:47;;;;;;;;;3.00;3.00;;;;;17.68;43.12;101232.91;4978448;28;45353;-78
2023/06/04 03:49:13;;;;;;;;;4.00;4.00;;;;;17.66;43.09;101232.22;4979326;28;45354;-79
2023/06/04 03:51:40;;;;;;;;;4.00;4.00;;;;;17.69;43.13;101238.09;4982543;28;48842;-79
2023/06/04 03:54:05;;;;;;;;;4.00;4.00;;;;;17.39;43.37;101202.13;4980950;28;45576;-80
2023/06/04 03:56:31;;;;;;;;;3.67;3.00;;;;;17.58;43.30;101247.34;4963397;28;45544;-79
2023/06/04 03:58:57;;;;;;;;;3.67;3.00;;;;;17.61;43.22;101246.16;4980773;28;45259;-79
2023/06/04 04:01:23;;;;;;;;;3.67;3.67;;;;;17.53;43.53;101233.63;4978983;28;48581;-78
2023/06/04 04:03:49;;;;;;;;;4.67;3.67;;;;;17.57;43.14;101251.06;4979900;28;45491;-78
2023/06/04 04:06:15;;;;;;;;;4.00;4.00;;;;;17.39;43.07;101231.69;4979676;28;45472;-79
2023/06/04 04:08:44;;;;;;;;;4.00;4.00;;;;;17.51;43.18;101261.69;4979075;28;45274;-79
2023/06/04 04:11:11;;;;;;;;;5.33;4.00;;;;;17.34;43.22;101240.28;4963523;28;48671;-79
2023/06/04 04:13:36;;;;;;;;;5.67;5.00;;;;;17.42;43.10;101255.53;4980978;28;45447;-80
2023/06/04 04:16:02;;;;;;;;;3.33;3.33;;;;;17.38;43.22;101256.03;4982115;28;45360;-77
2023/06/04 04:18:27;;;;;;;;;5.33;4.00;;;;;17.41;43.21;101261.06;4965937;28;45505;-78
2023/06/04 04:20:52;;;;;;;;;4.67;4.00;;;;;17.40;43.08;101260.22;4965121;28;47554;-78
2023/06/04 04:23:18;;;;;;;;;3.00;3.00;;;;;17.39;43.06;101269.31;4979128;28;46018;-80
2023/06/04 04:25:48;;;;;;;;;5.33;3.00;;;;;17.18;43.60;101250.25;4978275;28;45220;-78
2023/06/04 04:28:14;;;;;;;;;5.33;4.00;;;;;17.31;43.30;101267.50;4962556;28;45457;-78
2023/06/04 04:30:40;;;;;;;;;4.00;3.00;;;;;17.36;43.19;101271.50;4976617;28;53252;-77
2023/06/04 04:33:06;;;;;;;;;4.00;3.33;;;;;17.41;43.17;101271.81;4961685;28;45344;-77
2023/06/04 04:35:36;;;;;;;;;4.00;3.00;;;;;17.40;43.14;101264.78;4961921;28;45494;-78
2023/06/04 04:38:05;;;;;;;;;4.33;3.67;;;;;17.51;42.90;101278.66;4961684;28;45303;-79
2023/06/04 04:40:31;;;;;;;;;4.67;3.67;;;;;17.40;42.96;101257.53;4977332;28;47559;-78
2023/06/04 04:42:56;;;;;;;;;5.00;4.00;;;;;17.52;43.04;101274.13;4960460;28;45464;-79
2023/06/04 04:45:22;;;;;;;;;5.00;4.00;;;;;17.45;43.00;101265.09;4962130;28;45332;-77
2023/06/04 04:47:47;;;;;;;;;3.33;3.33;;;;;17.60;42.76;101284.81;4982680;28;45504;-78
2023/06/04 04:50:13;;;;;;;;;3.33;3.33;;;;;17.61;42.61;101283.81;4977775;28;48400;-79
2023/06/04 04:52:38;;;;;;;;;3.00;3.00;;;;;17.64;42.60;101284.31;4977567;28;45243;-78
2023/06/04 04:55:04;;;;;;;;;5.67;4.00;;;;;17.65;42.54;101279.78;4978763;28;45248;-78
2023/06/04 04:57:30;;;;;;;;;3.33;3.33;;;;;17.55;42.68;101268.38;4974042;28;45591;-79
2023/06/04 04:59:55;;;;;;;;;4.33;3.33;;;;;17.63;42.17;101276.44;4957957;28;47425;-78
2023/06/04 05:02:20;;;;;;;;;4.00;4.00;;;;;17.50;42.55;101270.78;4957791;28;45355;-78
2023/06/04 05:04:46;;;;;;;;;4.67;3.33;;;;;17.51;42.53;101280.53;4957810;28;45369;-79
2023/06/04 05:07:11;;;;;;;;;3.33;3.00;;;;;17.52;42.55;101282.19;4959788;28;45548;-79
2023/06/04 05:09:37;;;;;;;;;4.00;4.00;;;;;17.52;42.49;101279.50;4959046;28;46156;-79
2023/06/04 05:12:02;;;;;;;;;3.00;3.00;;;;;17.58;42.65;101284.16;4960387;28;45422;-79
2023/06/04 05:14:28;;;;;;;;;5.00;3.00;;;;;17.48;42.33;101268.28;4961442;28;45299;-78
2023/06/04 05:16:56;;;;;;;;;2.33;2.33;;;;;17.62;42.43;101290.88;4961733;28;45330;-79
2023/06/04 05:19:22;;;;;;;;;3.67;3.67;;;;;17.65;42.41;101295.91;4958948;28;45823;-79
2023/06/04 05:21:48;;;;;;;;;4.00;3.00;;;;;17.23;42.35;101224.56;4958735;28;45271;-79
2023/06/04 05:24:14;;;;;;;;;3.33;2.33;;;;;17.63;42.55;101296.09;4959115;28;45307;-79
2023/06/04 05:26:39;;;;;;;;;0.00;0.00;;;;;17.55;42.00;101279.97;4941793;28;45578;-78
2023/06/04 05:29:05;;;;;;;;;5.00;4.00;;;;;17.67;42.36;101295.72;4957632;28;47000;-79
2023/06/04 05:31:33;;;;;;;;;2.00;2.00;;;;;17.71;41.98;101295.22;4945974;28;45501;-79
2023/06/04 05:34:01;;;;;;;;;3.33;3.33;;;;;17.63;42.16;101285.34;4956891;28;45413;-79
2023/06/04 05:36:29;;;;;;;;;1.33;1.33;;;;;17.61;42.03;101279.25;4958930;28;45465;-78
2023/06/04 05:38:56;;;;;;;;;3.00;2.33;;;;;16.86;42.02;101149.19;4940977;28;48705;-78
2023/06/04 05:41:24;;;;;;;;;2.33;2.33;;;;;17.85;42.00;101307.09;4943076;28;45535;-79
2023/06/04 05:43:50;;;;;;;;;2.67;2.00;;;;;17.80;42.04;101302.22;4961730;28;45557;-79
2023/06/04 05:46:15;;;;;;;;;3.00;3.00;;;;;17.83;41.85;101284.91;4958988;28;45440;-78
2023/06/04 05:48:40;;;;;;;;;5.00;4.00;;;;;17.83;41.98;101304.56;4956755;28;47728;-79
2023/06/04 05:51:06;;;;;;;;;4.00;4.00;;;;;17.85;41.78;101301.72;4940831;28;45366;-79
2023/06/04 05:53:32;;;;;;;;;3.00;3.00;;;;;17.85;41.58;101283.72;4958658;28;45312;-80
2023/06/04 05:55:58;;;;;;;;;4.00;4.00;;;;;17.62;42.14;101242.50;4959848;28;45219;-78
2023/06/04 05:58:23;;;;;;;;;3.00;3.00;;;;;18.15;41.86;101308.03;4960176;28;48517;-78
2023/06/04 06:00:50;;;;;;;;;5.00;3.67;;;;;18.44;41.13;101316.22;4960649;28;46088;-78
2023/06/04 06:03:16;;;;;;;;;5.00;3.00;;;;;18.80;41.00;101312.88;4978460;28;45471;-77
2023/06/04 06:05:42;;;;;;;;;1.67;1.67;;;;;19.17;39.92;101313.84;4960521;28;45516;-78
2023/06/04 06:08:07;;;;;;;;;3.00;3.00;;;;;19.63;39.29;101315.31;4961424;28;47918;-79
2023/06/04 06:10:33;;;;;;;;;6.00;3.00;;;;;19.98;38.52;101312.78;4947755;28;45261;-79
2023/06/04 06:13:00;;;;;;;;;4.00;3.00;;;;;20.22;37.88;101293.53;4961186;28;45521;-69
2023/06/04 06:15:25;;;;;;;;;3.33;3.33;;;;;20.86;37.10;101315.03;4959053;28;45251;-81
2023/06/04 06:17:51;;;;;;;;;3.00;3.00;;;;;21.29;36.42;101312.22;4940689;28;47317;-80
2023/06/04 06:20:18;;;;;;;;;3.00;3.00;;;;;21.45;35.71;101257.78;4958973;28;45444;-79
2023/06/04 06:22:43;;;;;;;;;4.33;3.33;;;;;22.09;34.11;101306.06;4972678;28;45495;-81
2023/06/04 06:25:12;;;;;;;;;3.67;2.67;;;;;22.44;34.21;101324.84;4978354;28;45461;-78
2023/06/04 06:27:38;;;;;;;;;4.00;4.00;;;;;22.65;33.72;101311.09;4976308;28;46668;-80
2023/06/04 06:30:04;;;;;;;;;4.00;2.67;;;;;23.11;32.93;101329.19;4977767;28;45487;-79
2023/06/04 06:32:30;;;;;;;;;5.00;3.00;;;;;23.26;32.94;101307.25;4976898;28;45390;-82
2023/06/04 06:34:55;;;;;;;;;3.00;3.00;;;;;23.66;32.02;101319.63;4977721;28;45369;-81
2023/06/04 06:37:20;;;;;;;;;4.00;2.67;;;;;24.02;31.61;101329.03;4963607;28;48273;-79
2023/06/04 06:39:46;;;;;;;;;4.00;3.00;;;;;24.03;31.22;101297.25;4983337;28;45401;-83
2023/06/04 06:42:12;;;;;;;;;2.00;2.00;;;;;24.23;31.32;101285.22;4960869;28;45379;-82
2023/06/04 06:44:37;;;;;;;;;6.00;4.00;;;;;24.24;30.12;101237.16;4977739;28;45243;-82
2023/06/04 06:47:03;;;;;;;;;2.67;2.67;;;;;24.68;29.68;101271.47;4978927;28;45518;-82
2023/06/04 06:49:28;;;;;;;;;5.67;3.33;;;;;24.78;29.28;101258.19;4980233;28;45543;-80
2023/06/04 06:51:54;;;;;;;;;3.00;3.00;;;;;25.23;29.51;101295.16;4962041;28;45707;-79
2023/06/04 06:54:21;;;;;;;;;2.67;2.67;;;;;25.47;28.62;101302.44;4972401;28;45404;-80
2023/06/04 06:56:48;;;;;;;;;3.00;3.00;;;;;25.64;28.75;101327.97;4957031;28;46983;-80
2023/06/04 06:59:13;;;;;;;;;3.67;2.00;;;;;25.72;28.50;101311.34;4963021;28;45518;-80
2023/06/04 07:01:39;;;;;;;;;2.33;2.33;;;;;25.85;28.38;101318.50;4980721;28;45599;-79
2023/06/04 07:04:04;;;;;;;;;3.33;3.33;;;;;26.07;27.92;101297.03;4983102;28;45619;-81
2023/06/04 07:06:30;;;;;;;;;4.00;3.00;;;;;26.45;27.32;101325.81;4967669;28;47882;-78
2023/06/04 07:08:55;;;;;;;;;2.67;2.67;;;;;26.36;27.67;101289.88;4962964;28;47061;-81
2023/06/04 07:11:21;;;;;;;;;3.33;2.67;;;;;26.75;27.69;101318.34;4964947;28;45525;-79
2023/06/04 07:13:47;;;;;;;;;3.00;3.00;;;;;26.94;27.09;101313.59;4977921;28;45245;-80
2023/06/04 07:16:12;;;;;;;;;3.50;3.50;;;;;26.12;26.67;101147.25;4960946;28;46694;-80
2023/06/04 07:18:38;;;;;;;;;4.00;2.00;;;;;27.32;26.36;101288.53;4942959;28;45502;-80
2023/06/04 07:21:03;;;;;;;;;3.00;3.00;;;;;27.65;26.13;101309.72;4959339;28;45458;-78
2023/06/04 07:23:28;;;;;;;;;2.00;2.00;;;;;27.65;25.84;101266.00;4959980;28;45253;-81
2023/06/04 07:25:54;;;;;;;;;3.67;3.00;;;;;28.27;25.34;101317.16;4959502;28;47736;-81
2023/06/04 07:28:20;;;;;;;;;4.67;2.00;;;;;28.60;24.87;101311.66;4960877;28;45310;-81
2023/06/04 07:30:46;;;;;;;;;4.00;4.00;;;;;29.00;25.37;101321.59;4970187;28;45273;-81
2023/06/04 07:33:11;;;;;;;;;4.33;3.67;;;;;29.17;24.61;101316.91;4981177;28;45397;-80
2023/06/04 07:35:36;;;;;;;;;2.00;2.00;;;;;29.12;24.40;101297.69;4985691;28;46102;-79
2023/06/04 07:38:02;;;;;;;;;2.33;2.33;;;;;29.32;24.49;101308.91;4963335;28;45741;-80
2023/06/04 07:40:27;;;;;;;;;3.33;3.33;;;;;29.55;24.36;101315.22;4980184;28;45424;-78
2023/06/04 07:42:53;;;;;;;;;3.00;3.00;;;;;29.67;23.80;101294.00;4962352;28;45577;-79
2023/06/04 07:45:18;;;;;;;;;3.00;2.00;;;;;30.00;23.23;101314.88;4979894;28;45506;-82
2023/06/04 07:47:44;;;;;;;;;3.00;2.00;;;;;30.11;22.95;101321.34;4962779;28;45546;-82
2023/06/04 07:50:10;;;;;;;;;5.00;3.00;;;;;29.99;22.81;101314.06;4979070;28;45303;-82
2023/06/04 07:52:35;;;;;;;;;3.33;2.33;;;;;29.75;22.38;101290.78;4979871;28;45513;-82
2023/06/04 07:55:01;;;;;;;;;5.00;3.33;;;;;29.77;23.25;101305.06;4978547;28;46219;-82
2023/06/04 07:57:27;;;;;;;;;4.00;2.67;;;;;29.78;23.28;101295.75;4960315;28;45546;-83
2023/06/04 07:59:52;;;;;;;;;3.67;2.67;;;;;30.05;23.58;101300.44;4960817;28;45522;-82
2023/06/04 08:02:18;;;;;;;;;3.00;3.00;;;;;30.29;22.81;101301.75;4964197;28;45367;-81
2023/06/04 08:04:47;;;;;;;;;3.67;3.67;;;;;30.50;22.50;101311.81;4962603;28;46509;-80
2023/06/04 08:07:12;;;;;;;;;3.67;3.67;;;;;30.18;21.87;101245.16;4971816;28;45489;-82
2023/06/04 08:09:38;;;;;;;;;4.00;3.00;;;;;30.72;22.09;101311.72;4959448;28;45345;-82
2023/06/04 08:12:03;;;;;;;;;3.00;2.00;;;;;30.87;22.05;101300.00;4959419;28;45552;-83
2023/06/04 08:14:29;;;;;;;;;4.00;4.00;;;;;30.92;22.28;101289.03;4958559;28;48749;-82
2023/06/04 08:16:54;;;;;;;;;2.33;2.33;;;;;31.33;22.08;101297.50;4975726;28;45365;-82
2023/06/04 08:19:19;;;;;;;;;4.00;4.00;;;;;31.56;21.79;101294.28;4960395;28;45408;-83
2023/06/04 08:21:48;;;;;;;;;3.33;2.67;;;;;31.87;22.02;101308.97;4979726;28;45634;-83
2023/06/04 08:24:13;;;;;;;;;2.33;2.33;;;;;31.81;20.98;101300.97;4980577;28;46000;-82
2023/06/04 08:26:39;;;;;;;;;3.67;3.33;;;;;31.37;21.02;101263.72;4961080;28;45909;-84
2023/06/04 08:29:05;;;;;;;;;2.67;2.67;;;;;31.72;21.43;101293.25;4967159;28;45276;-81
2023/06/04 08:31:31;;;;;;;;;4.00;4.00;;;;;31.98;21.32;101287.78;4983711;28;45547;-82
2023/06/04 08:33:56;;;;;;;;;3.00;3.00;;;;;32.27;21.17;101297.22;4962231;28;48959;-83
2023/06/04 08:36:21;;;;;;;;;2.67;2.67;;;;;32.42;20.64;101312.03;4962148;28;45428;-81
2023/06/04 08:38:50;;;;;;;;;5.00;5.00;;;;;32.34;19.91;101292.25;4959497;28;45343;-78
2023/06/04 08:41:26;;;;;;;;;3.00;2.00;;;;;32.06;19.97;101310.09;4975011;28;45447;-77
2023/06/04 08:43:55;;;;;;;;;3.33;3.33;;;;;31.95;20.29;101280.09;4975263;28;46183;-74
2023/06/04 08:46:21;;;;;;;;;5.67;3.00;;;;;32.00;20.42;101300.16;4961310;28;45440;-76
2023/06/04 08:48:48;;;;;;;;;4.00;4.00;;;;;32.17;21.01;101304.59;4960624;28;45260;-79
2023/06/04 08:51:15;;;;;;;;;4.00;4.00;;;;;32.42;19.98;101306.53;4978875;28;45334;-74
2023/06/04 08:53:42;;;;;;;;;3.00;3.00;;;;;32.58;19.48;101294.41;4977775;28;46086;-74
2023/06/04 08:56:08;;;;;;;;;3.00;3.00;;;;;32.64;19.93;101272.13;4978499;28;45332;-80
2023/06/04 08:58:35;;;;;;;;;2.33;2.33;;;;;33.34;18.95;101307.19;4982511;28;45236;-80
2023/06/04 09:01:01;;;;;;;;;5.00;5.00;;;;;33.69;18.62;101284.13;4977193;28;45328;-78
2023/06/04 09:03:29;;;;;;;;;3.00;3.00;;;;;33.97;18.15;101277.88;4978090;28;46819;-78
2023/06/04 09:05:55;;;;;;;;;3.00;2.00;;;;;33.91;17.49;101245.94;4977030;28;45515;-77
2023/06/04 09:08:22;;;;;;;;;2.33;2.33;;;;;34.24;17.64;101273.78;4977800;28;45376;-78
2023/06/04 09:10:51;;;;;;;;;3.00;3.00;;;;;34.61;17.68;101281.50;4978027;28;45537;-78
2023/06/04 09:13:19;;;;;;;;;3.67;3.67;;;;;34.91;17.36;101281.19;4977984;28;45315;-77
2023/06/04 09:15:45;;;;;;;;;3.00;3.00;;;;;34.92;16.26;101219.28;4960380;28;45374;-76
2023/06/04 09:18:12;;;;;;;;;2.67;2.67;;;;;35.55;16.36;101282.59;4957361;28;45756;-75
2023/06/04 09:20:37;;;;;;;;;2.67;2.67;;;;;35.96;16.14;101268.19;4977559;28;45592;-77
2023/06/04 09:23:12;;;;;;;;;2.33;2.33;;;;;36.30;15.48;101278.13;4977228;28;45752;-77
2023/06/04 09:25:42;;;;;;;;;2.33;2.33;;;;;36.38;15.33;101267.19;4978679;28;45275;-79
2023/06/04 09:28:07;;;;;;;;;3.00;3.00;;;;;36.87;14.89;101284.34;4960439;28;45472;-76
2023/06/04 09:30:33;;;;;;;;;3.00;3.00;;;;;37.07;13.79;101290.28;4977721;28;45405;-77
2023/06/04 09:33:12;;;;;;;;;2.33;2.00;;;;;36.70;14.10;101244.16;4977243;28;45612;-77
2023/06/04 09:35:37;;;;;;;;;4.00;2.67;;;;;37.50;13.70;101284.41;4959839;28;45828;-76
2023/06/04 09:38:05;;;;;;;;;1.33;1.33;;;;;37.24;13.77;101220.31;4977552;28;45384;-77
2023/06/04 09:40:37;;;;;;;;;2.33;2.33;;;;;38.04;12.80;101282.56;4977600;28;45573;-79
2023/06/04 09:43:03;;;;;;;;;1.67;1.67;;;;;38.48;13.23;101286.50;4976790;28;45534;-78
2023/06/04 09:45:31;;;;;;;;;2.00;2.00;;;;;38.57;11.99;101288.16;4975729;28;45410;-76
2023/06/04 09:47:57;;;;;;;;;2.00;2.00;;;;;38.00;12.55;101274.06;4976487;28;45576;-75
2023/06/04 09:50:45;;;;;;;;;2.00;2.00;;;;;37.61;12.98;101294.13;4959542;28;45481;-75
2023/06/04 09:53:22;;;;;;;;;3.67;3.67;;;;;37.53;12.99;101283.78;4959526;28;47826;-73
2023/06/04 09:55:58;;;;;;;;;3.00;3.00;;;;;37.29;13.32;101244.38;4975659;28;45844;-73
2023/06/04 09:58:25;;;;;;;;;2.33;2.33;;;;;37.57;13.63;101282.00;4977082;28;45289;-78
2023/06/04 10:00:55;;;;;;;;;2.33;2.00;;;;;37.28;13.98;101292.66;4977341;28;45485;-74
2023/06/04 10:03:25;;;;;;;;;1.00;1.00;;;;;36.73;14.34;101300.91;4975453;28;46526;-73
2023/06/04 10:05:53;;;;;;;;;2.00;2.00;;;;;35.79;14.52;101301.88;4977703;28;45482;-75
2023/06/04 10:08:23;;;;;;;;;3.67;2.67;;;;;35.03;15.56;101305.63;4946599;28;46035;-74
2023/06/04 10:10:50;;;;;;;;;3.67;3.33;;;;;34.02;16.27;101255.78;4940099;28;45504;-73
2023/06/04 10:13:19;;;;;;;;;3.67;3.67;;;;;33.19;16.19;101258.44;4951241;28;46751;-74
2023/06/04 10:15:49;;;;;;;;;3.00;3.00;;;;;31.99;17.32;101251.75;4963977;28;45410;-72
2023/06/04 10:18:15;;;;;;;;;2.67;2.67;;;;;31.37;17.54;101306.84;4973429;28;45310;-73
2023/06/04 10:20:42;;;;;;;;;2.00;2.00;;;;;30.35;18.69;101284.22;4974957;28;45451;-74
2023/06/04 10:23:07;;;;;;;;;2.00;2.00;;;;;29.51;19.94;101305.88;4975454;28;45932;-72
2023/06/04 10:25:35;;;;;;;;;2.00;2.00;;;;;29.04;20.17;101284.44;4975708;28;45481;-74
2023/06/04 10:28:04;;;;;;;;;3.00;3.00;;;;;28.81;20.39;101301.03;4959008;28;45430;-73
2023/06/04 10:30:30;;;;;;;;;3.00;3.00;;;;;28.43;20.59;101289.81;4977019;28;45421;-73
2023/06/04 10:32:57;;;;;;;;;1.33;1.33;;;;;28.16;20.78;101306.00;4973768;28;48556;-76
2023/06/04 10:35:31;;;;;;;;;3.33;2.33;;;;;27.65;21.28;101297.97;4943107;28;45578;-76
2023/06/04 10:38:08;;;;;;;;;3.00;3.00;;;;;27.36;21.28;101307.97;4965280;28;45454;-76
2023/06/04 10:40:34;;;;;;;;;3.33;3.33;;;;;27.01;22.22;101291.66;4976826;28;45428;-73
2023/06/04 10:43:10;;;;;;;;;4.00;4.00;;;;;26.77;22.72;101290.84;4955199;28;46400;-74
2023/06/04 10:45:36;;;;;;;;;4.00;4.00;;;;;26.62;22.59;101288.56;4957152;28;45251;-73
2023/06/04 10:48:07;;;;;;;;;2.67;2.67;;;;;26.60;22.98;101301.63;4955855;28;45382;-75
2023/06/04 10:50:34;;;;;;;;;2.67;2.67;;;;;26.32;22.73;101294.94;4957414;28;45550;-80
2023/06/04 10:53:12;;;;;;;;;3.00;3.00;;;;;25.93;23.20;101262.84;4953027;28;47866;-81
2023/06/04 10:55:44;;;;;;;;;5.00;3.33;;;;;26.15;23.41;101302.13;4976916;28;45420;-73
2023/06/04 10:58:09;;;;;;;;;3.00;3.00;;;;;25.99;22.42;101261.91;4976424;28;45368;-77
2023/06/04 11:00:41;;;;;;;;;2.67;2.67;;;;;25.91;23.07;101273.16;4977740;28;45417;-76
2023/06/04 11:03:07;;;;;;;;;3.00;3.00;;;;;25.87;23.20;101300.03;4959532;28;47163;-77
2023/06/04 11:05:42;;;;;;;;;5.00;3.00;;;;;25.82;23.23;101301.78;4976330;28;45419;-75
2023/06/04 11:08:08;;;;;;;;;3.00;3.00;;;;;25.79;23.56;101308.50;4976197;28;45357;-74
2023/06/04 11:10:35;;;;;;;;;3.67;2.67;;;;;25.78;23.48;101304.97;4976414;28;45435;-75
2023/06/04 11:13:03;;;;;;;;;4.67;3.00;;;;;25.65;23.23;101296.13;4975870;28;45947;-74
2023/06/04 11:15:55;;;;;;;;;3.00;3.00;;;;;25.58;23.24;101292.66;4976253;28;45495;-74
2023/06/04 11:18:22;;;;;;;;;6.33;3.67;;;;;25.51;23.39;101300.91;4968464;28;45512;-75
2023/06/04 11:20:57;;;;;;;;;3.00;3.00;;;;;25.55;23.73;101304.84;4939569;28;46243;-77
2023/06/04 11:23:23;;;;;;;;;2.00;2.00;;;;;25.52;23.65;101294.41;4970683;28;45354;-71